Stapelmoor — V2BU8 — position and weather

sailwx.info

Track history (hours):
 
Tides and Currents Weather Stations Pressure Air Temp Water Temp Dewpoint Dewpoint Depression Visibility Wind Speed Wind Dir Waves Ship Positions

Stapelmoor

Last reported at 2018-Apr-19 20:38 UTC. Time now 2018-Apr-25 00:54 UTC.
Position N 43°18' E 004°59'.

Length 80 m; draft 4.4 m.

Type: Ship. MMSI: 304932000.

Date/timePositionNaut miles runAvg speedWind from/ knotsBaromVisibWave heightAir tempDewpointWater temp
2018-Apr-19 20:38N 43°18' E 004°59'1 9.3
2018-Apr-19 20:30N 43°19' E 004°59'5 9.2
2018-Apr-19 20:00N 43°23' E 004°56'9 0.5
2018-Apr-19 02:41N 43°25' E 004°45'2 7.9
2018-Apr-19 02:28N 43°24' E 004°46'6 4.4
2018-Apr-19 01:04N 43°24' E 004°55'110.1
2018-Apr-19 01:00N 43°23' E 004°56'  
2018-Apr-16 03:51N 37°24' W 000°44'240 9.4
2018-Apr-15 02:23N 35°58' W 005°23'  
Track history (hours):
 
Tides and Currents Weather Stations Pressure Air Temp Water Temp Dewpoint Dewpoint Depression Visibility Wind Speed Wind Dir Waves Ship Positions

Stapelmoor

Last reported at 2018-Apr-19 20:38 UTC. Time now 2018-Apr-25 00:54 UTC.
Position N 43°18' E 004°59'.

Length 80 m; draft 4.4 m.

Type: Ship. MMSI: 304932000.

Date/timePositionNaut miles runAvg speedWind from/ knotsBaromVisibWave heightAir tempDewpointWater temp
2018-Apr-19 20:38N 43°18' E 004°59'1 9.3
2018-Apr-19 20:30N 43°19' E 004°59'5 9.2
2018-Apr-19 20:00N 43°23' E 004°56'9 0.5
2018-Apr-19 02:41N 43°25' E 004°45'2 7.9
2018-Apr-19 02:28N 43°24' E 004°46'6 4.4
2018-Apr-19 01:04N 43°24' E 004°55'110.1
2018-Apr-19 01:00N 43°23' E 004°56'  
2018-Apr-16 03:51N 37°24' W 000°44'240 9.4
2018-Apr-15 02:23N 35°58' W 005°23'  

Dump ship's entire track history